aviador You're here:

KMLT Decoded Metar

MILLINOCKET in ME, USA
Report Time2018-05-26 16:53:00
UTC Time2018-05-26 17:27:41
Flight Rules vfr VFR
WindVRB at 05 kt
Visibility9999 m
Phenomena:N/A
Clouds:N/A
Expected CloudBase > 5,600 ft AGL from Temp-Dew spread
CeilingNone
Temp22°C (ISA +8)
Dew Point08°C (41% RH)
AAT19.8°C
QNH1008 hPa
Density Alt1,627 ft
Elevation404 ft
Report Wrong Elevation
Raw Report
KMLT 261653Z AUTO VRB05KT 10SM CLR 22/08 A2976 RMK AO2 SLP083
T02170078=

Extra information for KMLT:More info

Metar Taf Metar & Taf Last 4 Metars F.Rules Stats Wind Profile Meteogram Temp Stats Airport Information Weather charts Add Link Nearby VenuesMetar ALERT Operation Metar Decoded Social comments

AIRNAV info for KMLT